sensor_id;sensor_type;location;lat;lon;timestamp;P1;durP1;ratioP1;P2;durP2;ratioP2
70122;SDS011;57489;37.404;24.920;2023-12-29T00:02:50;20.20;;;8.73;;
70122;SDS011;57489;37.404;24.920;2023-12-29T00:07:52;19.53;;;8.57;;
70122;SDS011;57489;37.404;24.920;2023-12-29T00:12:56;21.85;;;8.40;;
70122;SDS011;57489;37.404;24.920;2023-12-29T00:17:58;18.07;;;8.43;;
70122;SDS011;57489;37.404;24.920;2023-12-29T00:23:00;18.27;;;9.03;;
70122;SDS011;57489;37.404;24.920;2023-12-29T00:28:04;20.48;;;7.93;;
70122;SDS011;57489;37.404;24.920;2023-12-29T00:33:07;17.17;;;8.00;;
70122;SDS011;57489;37.404;24.920;2023-12-29T00:38:09;17.15;;;7.60;;
70122;SDS011;57489;37.404;24.920;2023-12-29T00:43:13;18.50;;;7.80;;
70122;SDS011;57489;37.404;24.920;2023-12-29T00:48:15;16.53;;;7.37;;
70122;SDS011;57489;37.404;24.920;2023-12-29T00:53:18;15.15;;;7.78;;
70122;SDS011;57489;37.404;24.920;2023-12-29T00:58:21;16.83;;;7.88;;
70122;SDS011;57489;37.404;24.920;2023-12-29T01:03:24;16.70;;;7.87;;
70122;SDS011;57489;37.404;24.920;2023-12-29T01:08:26;14.85;;;7.88;;
70122;SDS011;57489;37.404;24.920;2023-12-29T01:13:30;17.43;;;7.63;;
70122;SDS011;57489;37.404;24.920;2023-12-29T01:18:32;14.63;;;6.80;;
70122;SDS011;57489;37.404;24.920;2023-12-29T01:23:34;16.08;;;6.95;;
70122;SDS011;57489;37.404;24.920;2023-12-29T01:28:38;13.93;;;7.13;;
70122;SDS011;57489;37.404;24.920;2023-12-29T01:33:40;17.60;;;7.07;;
70122;SDS011;57489;37.404;24.920;2023-12-29T01:38:42;17.48;;;7.45;;
70122;SDS011;57489;37.404;24.920;2023-12-29T01:49:31;13.95;;;6.40;;
70122;SDS011;57489;37.404;24.920;2023-12-29T01:54:35;14.87;;;7.60;;
70122;SDS011;57489;37.404;24.920;2023-12-29T01:59:41;13.77;;;6.28;;
70122;SDS011;57489;37.404;24.920;2023-12-29T02:04:46;15.98;;;7.68;;
70122;SDS011;57489;37.404;24.920;2023-12-29T02:09:49;14.47;;;6.40;;
70122;SDS011;57489;37.404;24.920;2023-12-29T02:14:52;15.65;;;7.20;;
70122;SDS011;57489;37.404;24.920;2023-12-29T02:19:56;16.23;;;6.53;;
70122;SDS011;57489;37.404;24.920;2023-12-29T02:25:00;12.25;;;6.15;;
70122;SDS011;57489;37.404;24.920;2023-12-29T02:30:06;12.88;;;6.00;;
70122;SDS011;57489;37.404;24.920;2023-12-29T02:35:12;11.87;;;5.57;;
70122;SDS011;57489;37.404;24.920;2023-12-29T02:40:18;15.52;;;5.78;;
70122;SDS011;57489;37.404;24.920;2023-12-29T02:45:20;13.13;;;5.77;;
70122;SDS011;57489;37.404;24.920;2023-12-29T02:50:23;12.63;;;5.63;;
70122;SDS011;57489;37.404;24.920;2023-12-29T02:55:26;11.85;;;5.93;;
70122;SDS011;57489;37.404;24.920;2023-12-29T03:00:29;10.50;;;5.50;;
70122;SDS011;57489;37.404;24.920;2023-12-29T03:05:31;11.93;;;6.15;;
70122;SDS011;57489;37.404;24.920;2023-12-29T03:10:34;12.63;;;5.25;;
70122;SDS011;57489;37.404;24.920;2023-12-29T03:15:37;12.63;;;5.40;;
70122;SDS011;57489;37.404;24.920;2023-12-29T03:20:39;14.48;;;6.72;;
70122;SDS011;57489;37.404;24.920;2023-12-29T03:25:43;10.87;;;5.30;;
70122;SDS011;57489;37.404;24.920;2023-12-29T03:30:45;10.57;;;5.00;;
70122;SDS011;57489;37.404;24.920;2023-12-29T03:35:47;10.75;;;5.32;;
70122;SDS011;57489;37.404;24.920;2023-12-29T03:40:51;9.87;;;5.40;;
70122;SDS011;57489;37.404;24.920;2023-12-29T03:45:53;12.63;;;4.78;;
70122;SDS011;57489;37.404;24.920;2023-12-29T03:50:55;10.35;;;4.82;;
70122;SDS011;57489;37.404;24.920;2023-12-29T03:55:59;11.03;;;5.03;;
70122;SDS011;57489;37.404;24.920;2023-12-29T04:01:08;9.27;;;4.90;;
70122;SDS011;57489;37.404;24.920;2023-12-29T04:06:11;10.40;;;4.87;;
70122;SDS011;57489;37.404;24.920;2023-12-29T04:11:15;10.48;;;4.80;;
70122;SDS011;57489;37.404;24.920;2023-12-29T04:16:17;9.63;;;5.00;;
70122;SDS011;57489;37.404;24.920;2023-12-29T04:21:19;9.27;;;4.63;;
70122;SDS011;57489;37.404;24.920;2023-12-29T04:26:23;9.13;;;4.70;;
70122;SDS011;57489;37.404;24.920;2023-12-29T04:31:25;10.18;;;4.63;;
70122;SDS011;57489;37.404;24.920;2023-12-29T04:36:27;8.93;;;4.70;;
70122;SDS011;57489;37.404;24.920;2023-12-29T04:41:31;8.20;;;5.10;;
70122;SDS011;57489;37.404;24.920;2023-12-29T04:46:33;10.50;;;4.33;;
70122;SDS011;57489;37.404;24.920;2023-12-29T04:51:36;9.63;;;5.20;;
70122;SDS011;57489;37.404;24.920;2023-12-29T04:56:39;10.23;;;4.55;;
70122;SDS011;57489;37.404;24.920;2023-12-29T05:01:42;9.97;;;4.93;;
70122;SDS011;57489;37.404;24.920;2023-12-29T05:06:44;11.02;;;4.55;;
70122;SDS011;57489;37.404;24.920;2023-12-29T05:11:48;8.38;;;4.03;;
70122;SDS011;57489;37.404;24.920;2023-12-29T05:16:50;9.13;;;4.03;;
70122;SDS011;57489;37.404;24.920;2023-12-29T05:21:52;9.00;;;4.35;;
70122;SDS011;57489;37.404;24.920;2023-12-29T05:26:56;7.17;;;3.90;;
70122;SDS011;57489;37.404;24.920;2023-12-29T05:31:58;9.23;;;4.22;;
70122;SDS011;57489;37.404;24.920;2023-12-29T05:37:02;7.55;;;3.90;;
70122;SDS011;57489;37.404;24.920;2023-12-29T05:42:06;8.60;;;4.17;;
70122;SDS011;57489;37.404;24.920;2023-12-29T05:47:09;8.73;;;4.47;;
70122;SDS011;57489;37.404;24.920;2023-12-29T05:52:11;9.63;;;4.73;;
70122;SDS011;57489;37.404;24.920;2023-12-29T05:57:15;6.83;;;4.17;;
70122;SDS011;57489;37.404;24.920;2023-12-29T06:02:17;8.77;;;4.50;;
70122;SDS011;57489;37.404;24.920;2023-12-29T06:07:20;8.23;;;3.50;;
70122;SDS011;57489;37.404;24.920;2023-12-29T06:12:24;7.53;;;4.00;;
70122;SDS011;57489;37.404;24.920;2023-12-29T06:17:26;8.45;;;3.65;;
70122;SDS011;57489;37.404;24.920;2023-12-29T06:22:28;8.17;;;4.17;;
70122;SDS011;57489;37.404;24.920;2023-12-29T06:27:32;8.38;;;4.20;;
70122;SDS011;57489;37.404;24.920;2023-12-29T06:32:37;7.83;;;3.93;;
70122;SDS011;57489;37.404;24.920;2023-12-29T06:37:40;8.43;;;4.30;;
70122;SDS011;57489;37.404;24.920;2023-12-29T06:42:44;8.63;;;3.92;;
70122;SDS011;57489;37.404;24.920;2023-12-29T06:47:46;8.43;;;4.27;;
70122;SDS011;57489;37.404;24.920;2023-12-29T06:52:48;7.07;;;3.90;;
70122;SDS011;57489;37.404;24.920;2023-12-29T06:57:52;8.30;;;4.28;;
70122;SDS011;57489;37.404;24.920;2023-12-29T07:02:54;6.37;;;3.40;;
70122;SDS011;57489;37.404;24.920;2023-12-29T07:07:57;9.35;;;4.88;;
70122;SDS011;57489;37.404;24.920;2023-12-29T07:13:00;10.80;;;4.43;;
70122;SDS011;57489;37.404;24.920;2023-12-29T07:18:03;7.37;;;3.80;;
70122;SDS011;57489;37.404;24.920;2023-12-29T07:23:06;7.65;;;4.07;;
70122;SDS011;57489;37.404;24.920;2023-12-29T07:28:09;8.00;;;4.43;;
70122;SDS011;57489;37.404;24.920;2023-12-29T07:33:12;9.43;;;4.43;;
70122;SDS011;57489;37.404;24.920;2023-12-29T07:38:15;9.93;;;4.78;;
70122;SDS011;57489;37.404;24.920;2023-12-29T07:43:19;8.67;;;4.23;;
70122;SDS011;57489;37.404;24.920;2023-12-29T07:48:22;7.43;;;4.27;;
70122;SDS011;57489;37.404;24.920;2023-12-29T07:53:24;7.97;;;4.93;;
70122;SDS011;57489;37.404;24.920;2023-12-29T07:58:28;7.60;;;4.07;;
70122;SDS011;57489;37.404;24.920;2023-12-29T08:03:30;8.20;;;4.23;;
70122;SDS011;57489;37.404;24.920;2023-12-29T08:08:33;9.60;;;4.18;;
70122;SDS011;57489;37.404;24.920;2023-12-29T08:13:37;9.53;;;5.17;;
70122;SDS011;57489;37.404;24.920;2023-12-29T08:18:40;7.57;;;4.57;;
70122;SDS011;57489;37.404;24.920;2023-12-29T08:23:42;7.35;;;3.67;;
70122;SDS011;57489;37.404;24.920;2023-12-29T08:28:46;10.40;;;4.17;;
70122;SDS011;57489;37.404;24.920;2023-12-29T08:33:48;11.90;;;4.45;;
70122;SDS011;57489;37.404;24.920;2023-12-29T08:38:50;14.13;;;4.60;;
70122;SDS011;57489;37.404;24.920;2023-12-29T08:43:55;12.60;;;4.33;;
70122;SDS011;57489;37.404;24.920;2023-12-29T08:48:57;7.30;;;4.10;;
70122;SDS011;57489;37.404;24.920;2023-12-29T08:54:01;11.10;;;4.00;;
70122;SDS011;57489;37.404;24.920;2023-12-29T08:59:05;8.80;;;3.73;;
70122;SDS011;57489;37.404;24.920;2023-12-29T09:04:08;11.40;;;4.25;;
70122;SDS011;57489;37.404;24.920;2023-12-29T09:09:11;7.70;;;3.90;;
70122;SDS011;57489;37.404;24.920;2023-12-29T09:14:15;8.57;;;4.37;;
70122;SDS011;57489;37.404;24.920;2023-12-29T09:19:17;8.85;;;4.88;;
70122;SDS011;57489;37.404;24.920;2023-12-29T09:24:20;13.13;;;4.10;;
70122;SDS011;57489;37.404;24.920;2023-12-29T09:29:23;9.73;;;4.10;;
70122;SDS011;57489;37.404;24.920;2023-12-29T09:34:26;7.53;;;4.13;;
70122;SDS011;57489;37.404;24.920;2023-12-29T09:39:28;10.10;;;4.27;;
70122;SDS011;57489;37.404;24.920;2023-12-29T09:44:32;12.77;;;4.15;;
70122;SDS011;57489;37.404;24.920;2023-12-29T09:49:37;9.57;;;4.60;;
70122;SDS011;57489;37.404;24.920;2023-12-29T09:54:40;22.87;;;7.57;;
70122;SDS011;57489;37.404;24.920;2023-12-29T09:59:45;21.48;;;7.30;;
70122;SDS011;57489;37.404;24.920;2023-12-29T10:04:51;29.27;;;9.50;;
70122;SDS011;57489;37.404;24.920;2023-12-29T10:09:54;33.27;;;9.03;;
70122;SDS011;57489;37.404;24.920;2023-12-29T10:15:02;27.98;;;8.35;;
70122;SDS011;57489;37.404;24.920;2023-12-29T10:20:12;26.23;;;7.80;;
70122;SDS011;57489;37.404;24.920;2023-12-29T10:25:20;44.78;;;9.48;;
70122;SDS011;57489;37.404;24.920;2023-12-29T10:30:26;33.33;;;9.73;;
70122;SDS011;57489;37.404;24.920;2023-12-29T10:35:29;34.60;;;9.70;;
70122;SDS011;57489;37.404;24.920;2023-12-29T10:40:31;50.53;;;12.27;;
70122;SDS011;57489;37.404;24.920;2023-12-29T10:45:35;40.58;;;10.20;;
70122;SDS011;57489;37.404;24.920;2023-12-29T10:50:42;42.53;;;10.80;;
70122;SDS011;57489;37.404;24.920;2023-12-29T10:55:46;36.22;;;9.60;;
70122;SDS011;57489;37.404;24.920;2023-12-29T11:00:50;28.33;;;9.30;;
70122;SDS011;57489;37.404;24.920;2023-12-29T11:05:52;32.43;;;10.10;;
70122;SDS011;57489;37.404;24.920;2023-12-29T11:11:01;23.48;;;9.07;;
70122;SDS011;57489;37.404;24.920;2023-12-29T11:16:06;29.60;;;8.30;;
70122;SDS011;57489;37.404;24.920;2023-12-29T11:21:09;31.50;;;9.10;;
70122;SDS011;57489;37.404;24.920;2023-12-29T11:26:12;19.73;;;7.60;;
70122;SDS011;57489;37.404;24.920;2023-12-29T11:31:16;27.17;;;8.00;;
70122;SDS011;57489;37.404;24.920;2023-12-29T11:36:20;21.43;;;8.07;;
70122;SDS011;57489;37.404;24.920;2023-12-29T11:41:31;27.27;;;8.93;;
70122;SDS011;57489;37.404;24.920;2023-12-29T11:46:42;33.63;;;8.70;;
70122;SDS011;57489;37.404;24.920;2023-12-29T11:51:46;27.30;;;8.30;;
70122;SDS011;57489;37.404;24.920;2023-12-29T11:56:49;19.27;;;6.53;;
70122;SDS011;57489;37.404;24.920;2023-12-29T12:01:54;25.47;;;6.93;;
70122;SDS011;57489;37.404;24.920;2023-12-29T12:06:57;22.40;;;6.97;;
70122;SDS011;57489;37.404;24.920;2023-12-29T12:12:00;18.30;;;7.38;;
70122;SDS011;57489;37.404;24.920;2023-12-29T12:17:05;17.13;;;7.00;;
70122;SDS011;57489;37.404;24.920;2023-12-29T12:22:09;18.83;;;6.87;;
70122;SDS011;57489;37.404;24.920;2023-12-29T12:27:12;17.65;;;6.63;;
70122;SDS011;57489;37.404;24.920;2023-12-29T12:32:17;20.23;;;6.90;;
70122;SDS011;57489;37.404;24.920;2023-12-29T12:37:19;17.67;;;7.67;;
70122;SDS011;57489;37.404;24.920;2023-12-29T12:42:22;16.38;;;7.85;;
70122;SDS011;57489;37.404;24.920;2023-12-29T12:47:27;16.10;;;7.50;;
70122;SDS011;57489;37.404;24.920;2023-12-29T12:52:35;16.47;;;8.47;;
70122;SDS011;57489;37.404;24.920;2023-12-29T12:57:38;18.67;;;7.13;;
70122;SDS011;57489;37.404;24.920;2023-12-29T13:02:42;18.40;;;7.95;;
70122;SDS011;57489;37.404;24.920;2023-12-29T13:07:46;16.07;;;7.60;;
70122;SDS011;57489;37.404;24.920;2023-12-29T13:12:52;16.85;;;7.20;;
70122;SDS011;57489;37.404;24.920;2023-12-29T13:17:56;12.35;;;6.63;;
70122;SDS011;57489;37.404;24.920;2023-12-29T13:22:58;14.60;;;7.13;;
70122;SDS011;57489;37.404;24.920;2023-12-29T13:28:02;11.98;;;6.55;;
70122;SDS011;57489;37.404;24.920;2023-12-29T13:33:07;19.58;;;6.70;;
70122;SDS011;57489;37.404;24.920;2023-12-29T13:38:16;13.03;;;5.53;;
70122;SDS011;57489;37.404;24.920;2023-12-29T13:43:21;10.63;;;5.75;;
70122;SDS011;57489;37.404;24.920;2023-12-29T13:48:25;13.23;;;5.95;;
70122;SDS011;57489;37.404;24.920;2023-12-29T13:53:28;12.93;;;5.60;;
70122;SDS011;57489;37.404;24.920;2023-12-29T13:58:30;10.90;;;5.07;;
70122;SDS011;57489;37.404;24.920;2023-12-29T14:03:37;15.97;;;7.03;;
70122;SDS011;57489;37.404;24.920;2023-12-29T14:08:46;10.27;;;5.07;;
70122;SDS011;57489;37.404;24.920;2023-12-29T14:13:49;15.88;;;5.35;;
70122;SDS011;57489;37.404;24.920;2023-12-29T14:18:55;10.93;;;5.10;;
70122;SDS011;57489;37.404;24.920;2023-12-29T14:24:05;9.93;;;4.50;;
70122;SDS011;57489;37.404;24.920;2023-12-29T14:29:09;10.85;;;4.70;;
70122;SDS011;57489;37.404;24.920;2023-12-29T14:34:14;8.30;;;4.43;;
70122;SDS011;57489;37.404;24.920;2023-12-29T14:39:16;9.43;;;4.33;;
70122;SDS011;57489;37.404;24.920;2023-12-29T14:44:18;9.70;;;4.22;;
70122;SDS011;57489;37.404;24.920;2023-12-29T14:49:22;9.20;;;4.20;;
70122;SDS011;57489;37.404;24.920;2023-12-29T14:54:24;10.57;;;4.60;;
70122;SDS011;57489;37.404;24.920;2023-12-29T14:59:27;8.93;;;4.22;;
70122;SDS011;57489;37.404;24.920;2023-12-29T15:04:32;9.43;;;5.27;;
70122;SDS011;57489;37.404;24.920;2023-12-29T15:09:35;9.23;;;4.47;;
70122;SDS011;57489;37.404;24.920;2023-12-29T15:14:37;9.07;;;5.05;;
70122;SDS011;57489;37.404;24.920;2023-12-29T15:19:41;10.80;;;4.67;;
70122;SDS011;57489;37.404;24.920;2023-12-29T15:24:43;11.57;;;4.60;;
70122;SDS011;57489;37.404;24.920;2023-12-29T15:29:46;11.18;;;5.35;;
70122;SDS011;57489;37.404;24.920;2023-12-29T15:34:49;9.50;;;4.97;;
70122;SDS011;57489;37.404;24.920;2023-12-29T15:39:52;11.03;;;4.93;;
70122;SDS011;57489;37.404;24.920;2023-12-29T15:44:54;10.75;;;4.38;;
70122;SDS011;57489;37.404;24.920;2023-12-29T15:49:58;10.73;;;4.93;;
70122;SDS011;57489;37.404;24.920;2023-12-29T15:55:00;9.20;;;4.83;;
70122;SDS011;57489;37.404;24.920;2023-12-29T16:00:02;13.15;;;4.70;;
70122;SDS011;57489;37.404;24.920;2023-12-29T16:05:07;9.23;;;4.37;;
70122;SDS011;57489;37.404;24.920;2023-12-29T16:10:10;6.47;;;3.90;;
70122;SDS011;57489;37.404;24.920;2023-12-29T16:15:12;11.35;;;4.22;;
70122;SDS011;57489;37.404;24.920;2023-12-29T16:20:16;8.90;;;4.37;;
70122;SDS011;57489;37.404;24.920;2023-12-29T16:25:18;9.83;;;4.40;;
70122;SDS011;57489;37.404;24.920;2023-12-29T16:30:21;10.73;;;3.95;;
70122;SDS011;57489;37.404;24.920;2023-12-29T16:35:24;9.47;;;3.90;;
70122;SDS011;57489;37.404;24.920;2023-12-29T16:40:27;11.20;;;3.97;;
70122;SDS011;57489;37.404;24.920;2023-12-29T16:45:29;14.13;;;4.60;;
70122;SDS011;57489;37.404;24.920;2023-12-29T16:50:33;23.37;;;11.43;;
70122;SDS011;57489;37.404;24.920;2023-12-29T16:55:35;21.40;;;10.67;;
70122;SDS011;57489;37.404;24.920;2023-12-29T17:00:37;27.73;;;14.50;;
70122;SDS011;57489;37.404;24.920;2023-12-29T17:05:42;43.17;;;25.47;;
70122;SDS011;57489;37.404;24.920;2023-12-29T17:10:44;40.67;;;23.73;;
70122;SDS011;57489;37.404;24.920;2023-12-29T17:15:47;28.58;;;18.30;;
70122;SDS011;57489;37.404;24.920;2023-12-29T17:20:51;22.67;;;11.37;;
70122;SDS011;57489;37.404;24.920;2023-12-29T17:25:53;20.33;;;8.80;;
70122;SDS011;57489;37.404;24.920;2023-12-29T17:30:55;12.60;;;7.60;;
70122;SDS011;57489;37.404;24.920;2023-12-29T17:35:59;15.63;;;6.10;;
70122;SDS011;57489;37.404;24.920;2023-12-29T17:41:02;21.53;;;10.00;;
70122;SDS011;57489;37.404;24.920;2023-12-29T17:46:04;24.10;;;14.50;;
70122;SDS011;57489;37.404;24.920;2023-12-29T17:51:08;34.17;;;18.77;;
70122;SDS011;57489;37.404;24.920;2023-12-29T17:56:11;33.55;;;18.83;;
70122;SDS011;57489;37.404;24.920;2023-12-29T18:01:13;28.02;;;17.40;;
70122;SDS011;57489;37.404;24.920;2023-12-29T18:06:17;34.90;;;19.97;;
70122;SDS011;57489;37.404;24.920;2023-12-29T18:11:19;35.13;;;21.10;;
70122;SDS011;57489;37.404;24.920;2023-12-29T18:16:22;50.20;;;28.40;;
70122;SDS011;57489;37.404;24.920;2023-12-29T18:21:25;64.20;;;36.67;;
70122;SDS011;57489;37.404;24.920;2023-12-29T18:26:28;54.70;;;30.35;;
70122;SDS011;57489;37.404;24.920;2023-12-29T18:31:30;45.30;;;25.43;;
70122;SDS011;57489;37.404;24.920;2023-12-29T18:36:34;40.57;;;23.93;;
70122;SDS011;57489;37.404;24.920;2023-12-29T18:41:36;35.80;;;23.05;;
70122;SDS011;57489;37.404;24.920;2023-12-29T18:46:38;40.77;;;22.83;;
70122;SDS011;57489;37.404;24.920;2023-12-29T18:51:42;38.00;;;21.45;;
70122;SDS011;57489;37.404;24.920;2023-12-29T18:56:47;34.20;;;19.67;;
70122;SDS011;57489;37.404;24.920;2023-12-29T19:01:49;38.73;;;21.70;;
70122;SDS011;57489;37.404;24.920;2023-12-29T19:06:53;35.45;;;20.90;;
70122;SDS011;57489;37.404;24.920;2023-12-29T19:11:57;33.38;;;21.35;;
70122;SDS011;57489;37.404;24.920;2023-12-29T19:16:59;35.47;;;20.20;;
70122;SDS011;57489;37.404;24.920;2023-12-29T19:22:03;33.33;;;20.13;;
70122;SDS011;57489;37.404;24.920;2023-12-29T19:27:05;33.90;;;18.47;;
70122;SDS011;57489;37.404;24.920;2023-12-29T19:32:08;33.70;;;20.73;;
70122;SDS011;57489;37.404;24.920;2023-12-29T19:37:11;18.92;;;7.70;;
70122;SDS011;57489;37.404;24.920;2023-12-29T19:42:14;18.60;;;8.32;;
70122;SDS011;57489;37.404;24.920;2023-12-29T19:47:16;14.30;;;8.10;;
70122;SDS011;57489;37.404;24.920;2023-12-29T19:52:20;11.70;;;7.40;;
70122;SDS011;57489;37.404;24.920;2023-12-29T19:57:25;12.32;;;5.47;;
70122;SDS011;57489;37.404;24.920;2023-12-29T20:02:27;12.07;;;6.80;;
70122;SDS011;57489;37.404;24.920;2023-12-29T20:07:31;10.48;;;6.47;;
70122;SDS011;57489;37.404;24.920;2023-12-29T20:12:34;13.70;;;6.90;;
70122;SDS011;57489;37.404;24.920;2023-12-29T20:17:37;10.93;;;6.70;;
70122;SDS011;57489;37.404;24.920;2023-12-29T20:22:41;18.02;;;6.82;;
70122;SDS011;57489;37.404;24.920;2023-12-29T20:27:44;10.27;;;6.63;;
70122;SDS011;57489;37.404;24.920;2023-12-29T20:32:47;12.37;;;6.67;;
70122;SDS011;57489;37.404;24.920;2023-12-29T20:37:52;11.80;;;7.57;;
70122;SDS011;57489;37.404;24.920;2023-12-29T20:42:55;11.47;;;6.33;;
70122;SDS011;57489;37.404;24.920;2023-12-29T20:47:58;14.03;;;6.83;;
70122;SDS011;57489;37.404;24.920;2023-12-29T20:53:02;10.02;;;5.88;;
70122;SDS011;57489;37.404;24.920;2023-12-29T20:58:04;11.90;;;6.83;;
70122;SDS011;57489;37.404;24.920;2023-12-29T21:03:06;11.98;;;6.85;;
70122;SDS011;57489;37.404;24.920;2023-12-29T21:08:10;10.93;;;6.22;;
70122;SDS011;57489;37.404;24.920;2023-12-29T21:13:12;12.73;;;6.20;;
70122;SDS011;57489;37.404;24.920;2023-12-29T21:18:15;11.95;;;6.25;;
70122;SDS011;57489;37.404;24.920;2023-12-29T21:23:18;10.70;;;6.63;;
70122;SDS011;57489;37.404;24.920;2023-12-29T21:28:21;9.13;;;4.90;;
70122;SDS011;57489;37.404;24.920;2023-12-29T21:33:24;10.68;;;5.93;;
70122;SDS011;57489;37.404;24.920;2023-12-29T21:38:28;8.43;;;5.87;;
70122;SDS011;57489;37.404;24.920;2023-12-29T21:43:30;11.43;;;5.20;;
70122;SDS011;57489;37.404;24.920;2023-12-29T21:48:32;11.55;;;5.40;;
70122;SDS011;57489;37.404;24.920;2023-12-29T21:53:37;11.20;;;4.80;;
70122;SDS011;57489;37.404;24.920;2023-12-29T21:58:40;11.68;;;6.97;;
70122;SDS011;57489;37.404;24.920;2023-12-29T22:03:43;10.20;;;5.63;;
70122;SDS011;57489;37.404;24.920;2023-12-29T22:08:47;7.93;;;5.43;;
70122;SDS011;57489;37.404;24.920;2023-12-29T22:13:49;6.97;;;4.25;;
70122;SDS011;57489;37.404;24.920;2023-12-29T22:18:52;8.07;;;4.80;;
70122;SDS011;57489;37.404;24.920;2023-12-29T22:23:55;8.02;;;4.60;;
70122;SDS011;57489;37.404;24.920;2023-12-29T22:28:58;11.32;;;4.85;;
70122;SDS011;57489;37.404;24.920;2023-12-29T22:34:00;17.10;;;4.97;;
70122;SDS011;57489;37.404;24.920;2023-12-29T22:39:04;9.80;;;5.00;;
70122;SDS011;57489;37.404;24.920;2023-12-29T22:44:07;7.13;;;4.00;;
70122;SDS011;57489;37.404;24.920;2023-12-29T22:49:09;9.90;;;5.50;;
70122;SDS011;57489;37.404;24.920;2023-12-29T22:54:12;9.38;;;5.35;;
70122;SDS011;57489;37.404;24.920;2023-12-29T22:59:15;7.03;;;4.13;;
70122;SDS011;57489;37.404;24.920;2023-12-29T23:04:17;6.50;;;4.25;;
70122;SDS011;57489;37.404;24.920;2023-12-29T23:09:21;9.05;;;4.28;;
70122;SDS011;57489;37.404;24.920;2023-12-29T23:14:23;7.27;;;3.60;;
70122;SDS011;57489;37.404;24.920;2023-12-29T23:19:25;7.15;;;3.75;;
70122;SDS011;57489;37.404;24.920;2023-12-29T23:24:29;6.87;;;4.10;;
70122;SDS011;57489;37.404;24.920;2023-12-29T23:29:31;8.70;;;3.85;;
70122;SDS011;57489;37.404;24.920;2023-12-29T23:34:33;7.15;;;4.78;;
70122;SDS011;57489;37.404;24.920;2023-12-29T23:39:37;4.97;;;3.20;;
70122;SDS011;57489;37.404;24.920;2023-12-29T23:44:39;7.00;;;4.50;;
70122;SDS011;57489;37.404;24.920;2023-12-29T23:49:41;5.40;;;3.23;;
70122;SDS011;57489;37.404;24.920;2023-12-29T23:54:46;8.13;;;3.78;;
70122;SDS011;57489;37.404;24.920;2023-12-29T23:59:48;10.88;;;4.03;;
